Aérodrome :
LOGIN :

S'inscrire | Disclaimer

   EN    FR    IT 

 










Légende :    VFR   VFR Marginal   IFR   IFR Intensif   IFR Très Intensif
Visi : 
Plafond : 
>= 8 km
>= 3000ft
5 à 8 km
1000 à 3000 ft
1500m à 5 km
500 à 1000 ft
800 à 1500m
200 à 500 ft
< 800m
< 200 ft
Symboles :   Orages  Brouillard  Fortes neiges  Fortes précipitations  Vent > 20 kt
SIGMETs :   Divers  Orages  Givrage  Turbulence  Onde Orograph.  Cendres Volcan.






- Altitude de l'aérodrome : 375 ft
- Code IATA : MST


EHBK - Maastricht Aachen

DERNIER METAR :
  • 122055Z AUTO 14004KT 120V200 9999 NSC 24/18 Q1012 NOSIG

METARs EXPIRÉS :
  • 122025Z AUTO 16005KT 130V190 9999 NSC 24/18 Q1013 NOSIG
  • 121955Z AUTO 13006KT 100V160 9999 NSC 24/19 Q1012 NOSIG
  • 121925Z AUTO 14007KT 110V180 9999 NSC 24/19 Q1012 NOSIG
  • 121855Z AUTO 15006KT 9999 NSC 23/19 Q1012 NOSIG
  • 121825Z AUTO 15005KT 9999 NSC 23/19 Q1012 NOSIG

TAF TAF EHBK
Valide du 12 à 18h jusqu'au 14 à 00h UTC


121710Z 1218/1324 07006KT CAVOK
PROB30
TEMPO 1218/1222 VRB15G25KT 5000 SHRA TSRA SCT060CB
PROB40
TEMPO 1312/1320 VRB15G25KT 3000 TSRAGR SCT045CB



MET'MAP, la Météo Aéronautique d'un coup d'oeil ! - Copyright ORBIFLY Décembre 2007 - Disclaimer

ORBIFLY MET'MAP TEAM :

Programmation & Développement : Alexandra Zaïnal
Sur une idée originale de : Baudouin d'Aumeries
Assistance à la programmation : Marc-Olivier Méhu
Soutien technique & logistique : Manuel Goepfert

Contact : metmap@orbifly.com




SOURCES & CREDITS :

   NOAA